createdAt,value
2022-07-30T00:03:57.744Z,19.40
2022-07-30T00:08:59.586Z,19.40
2022-07-30T00:14:02.101Z,19.30
2022-07-30T00:19:03.941Z,19.30
2022-07-30T00:24:08.738Z,19.20
2022-07-30T00:29:10.523Z,19.10
2022-07-30T00:34:13.365Z,18.90
2022-07-30T00:39:15.136Z,18.90
2022-07-30T00:44:16.885Z,18.80
2022-07-30T00:49:18.938Z,18.80
2022-07-30T00:54:21.507Z,18.70
2022-07-30T00:59:23.212Z,18.70
2022-07-30T01:04:25.797Z,18.70
2022-07-30T01:09:27.468Z,18.60
2022-07-30T01:14:29.419Z,18.60
2022-07-30T01:19:55.848Z,18.50
2022-07-30T01:25:00.469Z,18.40
2022-07-30T01:30:05.731Z,18.30
2022-07-30T01:35:10.767Z,18.30
2022-07-30T01:40:14.621Z,18.20
2022-07-30T01:45:17.793Z,18.20
2022-07-30T01:50:21.554Z,18.10
2022-07-30T01:55:43.952Z,18.10
2022-07-30T02:00:48.757Z,18.00
2022-07-30T02:06:05.415Z,18.00
2022-07-30T02:11:15.082Z,17.90
2022-07-30T02:16:30.715Z,17.80
2022-07-30T02:21:37.475Z,17.80
2022-07-30T02:26:41.754Z,17.70
2022-07-30T02:31:44.150Z,17.60
2022-07-30T02:36:47.218Z,17.60
2022-07-30T02:41:50.243Z,17.60
2022-07-30T02:46:53.617Z,17.50
2022-07-30T02:51:56.599Z,17.50
2022-07-30T02:57:01.529Z,17.40
2022-07-30T03:02:04.655Z,17.40
2022-07-30T03:07:08.785Z,17.40
2022-07-30T03:12:14.202Z,17.30
2022-07-30T03:17:17.223Z,17.30
2022-07-30T03:22:20.286Z,17.20
2022-07-30T03:27:23.652Z,17.20
2022-07-30T03:32:26.677Z,17.10
2022-07-30T03:37:29.833Z,17.10
2022-07-30T03:42:33.565Z,17.00
2022-07-30T03:47:38.619Z,16.90
2022-07-30T03:52:42.282Z,16.90
2022-07-30T03:57:44.176Z,16.80
2022-07-30T04:02:47.579Z,16.80
2022-07-30T04:07:49.521Z,16.80
2022-07-30T04:12:51.292Z,16.80
2022-07-30T04:17:58.352Z,16.70
2022-07-30T04:23:00.817Z,16.70
2022-07-30T04:28:05.013Z,16.60
2022-07-30T04:33:08.398Z,16.70
2022-07-30T04:38:10.538Z,16.70
2022-07-30T04:43:12.483Z,16.60
2022-07-30T04:48:14.305Z,16.60
2022-07-30T04:53:16.907Z,16.60
2022-07-30T04:58:20.685Z,16.60
2022-07-30T05:03:24.818Z,16.60
2022-07-30T05:08:28.169Z,16.70
2022-07-30T05:13:34.319Z,16.70
2022-07-30T05:18:40.117Z,16.70
2022-07-30T05:23:41.845Z,16.80
2022-07-30T05:28:55.247Z,16.90
2022-07-30T05:34:02.799Z,17.00
2022-07-30T05:39:05.524Z,17.00
2022-07-30T05:44:07.501Z,17.10
2022-07-30T05:49:09.423Z,17.20
2022-07-30T05:54:11.255Z,17.30
2022-07-30T05:59:12.956Z,17.30
2022-07-30T06:04:14.741Z,17.50
2022-07-30T06:09:16.545Z,17.60
2022-07-30T06:14:24.182Z,17.70
2022-07-30T06:19:26.284Z,17.70
2022-07-30T06:24:28.971Z,17.90
2022-07-30T06:29:31.013Z,17.90
2022-07-30T06:34:32.688Z,18.00
2022-07-30T06:39:57.512Z,18.10
2022-07-30T06:44:56.081Z,18.20
2022-07-30T06:49:58.244Z,18.30
2022-07-30T06:54:59.968Z,18.40
2022-07-30T07:00:01.760Z,18.50
2022-07-30T07:05:03.592Z,18.60
2022-07-30T07:10:06.022Z,18.70
2022-07-30T07:15:08.775Z,18.70
2022-07-30T07:20:10.867Z,18.80
2022-07-30T07:25:12.588Z,18.90
2022-07-30T07:30:14.541Z,19.00
2022-07-30T07:35:17.247Z,19.10
2022-07-30T07:40:18.984Z,19.20
2022-07-30T07:45:20.674Z,19.30
2022-07-30T07:50:22.931Z,19.30
2022-07-30T07:55:24.949Z,19.50
2022-07-30T08:00:27.373Z,19.60
2022-07-30T08:06:01.764Z,19.80
2022-07-30T08:10:50.916Z,19.80
2022-07-30T08:15:52.937Z,20.00
2022-07-30T08:20:55.222Z,20.10
2022-07-30T08:25:58.629Z,20.20
2022-07-30T08:31:02.405Z,20.30
2022-07-30T08:36:09.823Z,20.40
2022-07-30T08:41:12.600Z,20.60
2022-07-30T08:46:17.781Z,20.80
2022-07-30T08:51:20.157Z,21.00
2022-07-30T08:56:22.220Z,21.10
2022-07-30T09:01:24.079Z,21.00
2022-07-30T09:06:25.938Z,21.10
2022-07-30T09:11:28.396Z,21.20
2022-07-30T09:16:30.149Z,21.30
2022-07-30T09:21:31.935Z,21.40
2022-07-30T09:27:00.185Z,21.60
2022-07-30T09:32:06.852Z,21.60
2022-07-30T09:37:14.685Z,21.70
2022-07-30T09:42:22.260Z,21.80
2022-07-30T09:47:35.078Z,21.70
2022-07-30T09:52:43.903Z,21.70
2022-07-30T09:57:59.195Z,21.80
2022-07-30T10:03:33.999Z,21.70
2022-07-30T10:08:51.650Z,21.80
2022-07-30T10:13:59.079Z,21.90
2022-07-30T10:19:01.283Z,22.00
2022-07-30T10:24:04.129Z,22.00
2022-07-30T10:29:09.145Z,22.10
2022-07-30T10:34:18.914Z,22.30
2022-07-30T10:39:29.658Z,22.40
2022-07-30T10:44:55.262Z,22.40
2022-07-30T10:50:07.642Z,22.50
2022-07-30T10:55:15.791Z,22.60
2022-07-30T11:00:18.398Z,22.60
2022-07-30T11:05:27.362Z,22.70
2022-07-30T11:10:43.932Z,22.70
2022-07-30T11:15:54.554Z,22.80
2022-07-30T11:21:21.389Z,22.90
2022-07-30T11:26:41.165Z,23.10
2022-07-30T11:31:57.074Z,23.30
2022-07-30T11:37:19.305Z,23.40
2022-07-30T11:42:31.625Z,23.60
2022-07-30T11:47:33.681Z,23.70
2022-07-30T11:52:35.589Z,23.80
2022-07-30T11:57:41.065Z,24.10
2022-07-30T12:02:42.844Z,24.10
2022-07-30T12:07:44.894Z,24.30
2022-07-30T12:12:47.347Z,24.40
2022-07-30T12:17:51.420Z,24.40
2022-07-30T12:23:11.042Z,24.60
2022-07-30T12:28:20.768Z,24.70
2022-07-30T12:33:23.385Z,24.80
2022-07-30T12:38:27.084Z,24.70
2022-07-30T12:43:51.898Z,24.80
2022-07-30T12:49:19.127Z,24.80
2022-07-30T12:54:25.276Z,24.80
2022-07-30T12:59:27.790Z,24.80
2022-07-30T13:04:31.542Z,25.00
2022-07-30T13:09:33.485Z,24.90
2022-07-30T13:14:35.316Z,25.10
2022-07-30T13:19:37.784Z,25.20
2022-07-30T13:24:39.680Z,25.30
2022-07-30T13:29:42.738Z,25.40
2022-07-30T13:34:45.225Z,25.50
2022-07-30T13:39:46.915Z,25.70
2022-07-30T13:44:48.801Z,26.00
2022-07-30T13:49:50.949Z,26.20
2022-07-30T13:54:53.700Z,26.30
2022-07-30T13:59:55.498Z,26.40
2022-07-30T14:04:57.318Z,26.30
2022-07-30T14:09:59.024Z,26.10
2022-07-30T14:15:01.101Z,26.10
2022-07-30T14:20:03.006Z,26.10
2022-07-30T14:25:05.180Z,26.30
2022-07-30T14:30:09.429Z,26.30
2022-07-30T14:35:11.465Z,26.40
2022-07-30T14:40:13.496Z,26.50
2022-07-30T14:45:15.517Z,26.60
2022-07-30T14:50:17.249Z,26.50
2022-07-30T14:55:19.197Z,26.50
2022-07-30T15:00:21.275Z,26.50
2022-07-30T15:05:26.037Z,26.50
2022-07-30T15:10:27.915Z,26.50
2022-07-30T15:15:31.519Z,26.70
2022-07-30T15:20:39.300Z,26.70
2022-07-30T15:25:42.105Z,26.80
2022-07-30T15:30:43.922Z,26.80
2022-07-30T15:35:45.677Z,26.80
2022-07-30T15:40:47.500Z,26.80
2022-07-30T15:45:55.363Z,26.70
2022-07-30T15:51:07.834Z,26.60
2022-07-30T15:56:10.612Z,26.70
2022-07-30T16:01:12.794Z,26.60
2022-07-30T16:06:14.701Z,26.60
2022-07-30T16:11:16.513Z,26.50
2022-07-30T16:16:18.528Z,26.50
2022-07-30T16:21:21.757Z,26.50
2022-07-30T16:26:23.585Z,26.50
2022-07-30T16:31:25.297Z,26.50
2022-07-30T16:36:27.235Z,26.50
2022-07-30T16:41:28.973Z,26.40
2022-07-30T16:46:30.750Z,26.30
2022-07-30T16:51:32.694Z,26.30
2022-07-30T16:56:34.508Z,26.20
2022-07-30T17:01:36.374Z,26.10
2022-07-30T17:06:40.014Z,26.00
2022-07-30T17:11:48.019Z,26.00
2022-07-30T17:16:54.035Z,25.90
2022-07-30T17:21:55.768Z,25.80
2022-07-30T17:26:58.428Z,25.80
2022-07-30T17:32:00.598Z,25.70
2022-07-30T17:37:02.597Z,25.60
2022-07-30T17:42:04.472Z,25.60
2022-07-30T17:47:08.843Z,25.60
2022-07-30T17:52:14.205Z,25.60
2022-07-30T17:57:16.046Z,25.50
2022-07-30T18:02:17.862Z,25.50
2022-07-30T18:07:25.825Z,25.50
2022-07-30T18:12:27.629Z,25.40
2022-07-30T18:17:30.145Z,25.30
2022-07-30T18:22:32.321Z,25.20
2022-07-30T18:27:34.150Z,25.10
2022-07-30T18:32:35.909Z,25.10
2022-07-30T18:37:40.064Z,25.00
2022-07-30T18:42:43.528Z,24.90
2022-07-30T18:47:46.384Z,24.80
2022-07-30T18:52:48.421Z,24.70
2022-07-30T18:57:52.058Z,24.70
2022-07-30T19:02:54.197Z,24.60
2022-07-30T19:07:58.478Z,24.40
2022-07-30T19:13:01.073Z,24.30
2022-07-30T19:18:03.212Z,24.30
2022-07-30T19:23:07.381Z,24.20
2022-07-30T19:28:11.180Z,24.10
2022-07-30T19:33:15.620Z,24.00
2022-07-30T19:38:23.962Z,24.00
2022-07-30T19:43:26.079Z,23.90
2022-07-30T19:48:31.586Z,23.80
2022-07-30T19:53:34.671Z,23.70
2022-07-30T19:58:36.722Z,23.70
2022-07-30T20:03:39.131Z,23.60
2022-07-30T20:08:41.924Z,23.50
2022-07-30T20:13:46.919Z,23.50
2022-07-30T20:18:49.760Z,23.40
2022-07-30T20:23:54.477Z,23.30
2022-07-30T20:28:56.212Z,23.30
2022-07-30T20:34:00.873Z,23.20
2022-07-30T20:39:03.230Z,23.10
2022-07-30T20:44:06.731Z,23.00
2022-07-30T20:49:10.440Z,23.00
2022-07-30T20:54:14.388Z,22.90
2022-07-30T20:59:16.633Z,22.90
2022-07-30T21:04:25.502Z,22.90
2022-07-30T21:09:29.164Z,22.80
2022-07-30T21:14:52.774Z,22.80
2022-07-30T21:19:54.438Z,22.70
2022-07-30T21:24:56.709Z,22.70
2022-07-30T21:29:58.540Z,22.60
2022-07-30T21:35:02.335Z,22.60
2022-07-30T21:40:10.781Z,22.50
2022-07-30T21:45:12.511Z,22.50
2022-07-30T21:50:14.772Z,22.50
2022-07-30T21:55:18.328Z,22.40
2022-07-30T22:00:46.041Z,22.40
2022-07-30T22:05:50.318Z,22.30
2022-07-30T22:10:55.591Z,22.30
2022-07-30T22:15:57.330Z,22.20
2022-07-30T22:20:59.557Z,22.20
2022-07-30T22:26:01.925Z,22.10
2022-07-30T22:31:05.684Z,22.10
2022-07-30T22:36:09.819Z,22.00
2022-07-30T22:41:13.994Z,22.00
2022-07-30T22:46:30.127Z,22.00
2022-07-30T22:52:01.853Z,21.90
2022-07-30T22:56:54.793Z,21.90
2022-07-30T23:01:56.965Z,21.90
2022-07-30T23:06:58.833Z,21.90
2022-07-30T23:12:01.346Z,21.80
2022-07-30T23:17:03.415Z,21.80
2022-07-30T23:22:06.987Z,21.80
2022-07-30T23:27:08.841Z,21.80
2022-07-30T23:32:10.662Z,21.80
2022-07-30T23:37:14.832Z,21.70
2022-07-30T23:42:17.174Z,21.70
2022-07-30T23:47:18.844Z,21.70
2022-07-30T23:52:42.240Z,21.70
2022-07-30T23:57:43.925Z,21.60
